Amuse — PI3644 — position and weather

sailwx.info

Track history (hours):
 
Tides and Currents Weather Stations Pressure Air Temp Water Temp Dewpoint Dewpoint Depression Visibility Wind Speed Wind Dir Waves Ship Positions

Amuse

Last reported at 2017-Oct-10 10:26 UTC. Time now 2017-Oct-19 16:51 UTC.
Position N 34°21' W 006°58'.
Warning: this ship's position is 9 days out of date.

Length 13 m.

Type: Sailing vessel. MMSI: 244250238.

Date/timePositionNaut miles runAvg speedWind from/ knotsBaromVisibWave heightAir tempDewpointWater temp
2017-Oct-10 10:26N 34°21' W 006°58'3 5.9
2017-Oct-10 09:54N 34°24' W 006°59'2 6.2
2017-Oct-10 09:30N 34°27' W 006°59'84 4.9
2017-Oct-09 16:19N 35°47' W 007°27'3 5.6
2017-Oct-09 15:52N 35°50' W 007°28'3 6.0
2017-Oct-09 15:23N 35°52' W 007°29'8 6.0
2017-Oct-09 13:59N 36°00' W 007°32'5 5.6
2017-Oct-09 13:10N 36°05' W 007°33'22 5.1
2017-Oct-09 08:55N 36°26' W 007°41'4 5.2
2017-Oct-09 08:14N 36°29' W 007°42'6 5.3
2017-Oct-09 07:05N 36°35' W 007°44'0 5.3
2017-Oct-09 07:00N 36°35' W 007°44'  
2017-Oct-02 09:33N 37°01' W 008°11'1 5.0
2017-Oct-02 09:25N 37°01' W 008°12'2 5.1
2017-Oct-02 08:57N 37°03' W 008°14'  
Track history (hours):
 
Tides and Currents Weather Stations Pressure Air Temp Water Temp Dewpoint Dewpoint Depression Visibility Wind Speed Wind Dir Waves Ship Positions

Amuse

Last reported at 2017-Oct-10 10:26 UTC. Time now 2017-Oct-19 16:51 UTC.
Position N 34°21' W 006°58'.
Warning: this ship's position is 9 days out of date.

Length 13 m.

Type: Sailing vessel. MMSI: 244250238.

Date/timePositionNaut miles runAvg speedWind from/ knotsBaromVisibWave heightAir tempDewpointWater temp
2017-Oct-10 10:26N 34°21' W 006°58'3 5.9
2017-Oct-10 09:54N 34°24' W 006°59'2 6.2
2017-Oct-10 09:30N 34°27' W 006°59'84 4.9
2017-Oct-09 16:19N 35°47' W 007°27'3 5.6
2017-Oct-09 15:52N 35°50' W 007°28'3 6.0
2017-Oct-09 15:23N 35°52' W 007°29'8 6.0
2017-Oct-09 13:59N 36°00' W 007°32'5 5.6
2017-Oct-09 13:10N 36°05' W 007°33'22 5.1
2017-Oct-09 08:55N 36°26' W 007°41'4 5.2
2017-Oct-09 08:14N 36°29' W 007°42'6 5.3
2017-Oct-09 07:05N 36°35' W 007°44'0 5.3
2017-Oct-09 07:00N 36°35' W 007°44'  
2017-Oct-02 09:33N 37°01' W 008°11'1 5.0
2017-Oct-02 09:25N 37°01' W 008°12'2 5.1
2017-Oct-02 08:57N 37°03' W 008°14'  

Dump ship's entire track history